x

Diamond Shoals (41025) Wave Buoy

9:50pm - Sat 23rd Jul 2016 All times are EDT. -4 hours from GMT.

  • Sig Wave height 2.6ft
  • Swell Direction
  • Peak Period 8s
  • Average Period 4s
  • Wind
    13mph, 18mph gusts
  • Sea Temp 86°f
  • Air Temp 84°f
  • Sea Pressure 1016.4mb
  • Diamond Shoals
  • Diamond Shoals

More Historic Weather Station data

Upgrade to MSW Pro to gain access to the past 30 days of data for over 8000 Wavebouys and Weather Stations around the globe.

Join Pro

Comparision Forecast

View Surf forecast
   
Sat 07/23 9:50pm 2.5ft 8s 4s 13 18 mph 1016.4mb 86f 84f
8:50pm 2.5ft 8s 4s 16 18 mph 1015.3mb 86f 84f
7:50pm 2.5ft 8s 4s 16 18 mph 1015mb 86f 85f
6:50pm 2.5ft 9s 4s 16 20 mph 1014.8mb 86f 85f
5:50pm 2.5ft 8s 4s 16
mph
1014.8mb 86f 85f
4:50pm 2.5ft 9s 4s 13 16 mph 1015.1mb 86f 85f
3:50pm 2ft 8s 5s 16 18 mph 1015.6mb 86f 85f
2:50pm 2.5ft 9s 5s 13 16 mph 1016.3mb 86f 85f
1:50pm 2.5ft 8s 5s 13 16 mph 1016.5mb 86f 84f
12:50pm 2.5ft 8s 5s 13 16 mph 1016.5mb 86f 84f
11:50am 2ft 8s  -  13
mph
1016.8mb 86f 84f
10:50am 2.5ft 8s 5s 11 13 mph 1016.8mb 86f 84f
9:50am 2.5ft 8s 5s 11
mph
1016.5mb 86f 84f
8:50am 2.5ft 9s 5s 11 13 mph 1016.5mb 86f 83f
7:50am 2.5ft 9s 5s 13
mph
1016.2mb 86f 83f
6:50am 2.5ft 9s 5s 11 13 mph 1016.3mb 85f 83f
5:50am 2.5ft 8s 5s 13 16 mph 1016mb 85f 83f
4:50am 2.5ft 8s 5s 13 16 mph 1016mb 85f 83f
3:50am 2.5ft 9s 5s 13 16 mph 1016.3mb 85f 83f
2:50am 2.5ft 9s 5s 13 16 mph 1016.3mb 85f 83f
1:50am 2.5ft 9s 5s 13 16 mph 1016.5mb 86f 83f
12:50am 2.5ft 8s 5s 13 16 mph 1016.6mb 86f 83f
Fri 07/22 11:50pm 2.5ft 8s 4s 13 16 mph 1016.8mb 87f 83f
10:50pm 2.5ft 8s 5s 16 18 mph 1016.7mb 87f 83f
9:50pm 2.5ft 8s 6s 16 18 mph 1016.5mb 86f 83f
8:50pm 2.5ft 9s 7s 13 16 mph 1015.9mb 86f 83f
7:50pm 2.5ft 8s 7s 11 13 mph 1016.3mb 86f 83f
6:50pm 2.5ft 9s 7s 9 13 mph 1016.5mb 86f 84f
5:50pm 2.5ft 9s 7s 9 11 mph 1017mb 86f 84f
4:50pm 2.5ft 9s 7s 9 11 mph 1017.5mb 86f 83f
3:50pm 2.5ft 9s 7s 7 9 mph 1018.2mb 86f 83f
2:50pm 2.5ft 9s 7s 7 9 mph 1019.1mb 86f 83f
1:50pm 2.5ft 9s 7s 4 9 mph 1019.3mb 86f 83f
12:50pm 2.5ft 9s 7s 4 7 mph 1019.3mb 86f 83f
11:50am 3ft 9s 8s  -  2 mph 1019.7mb 85f 83f
10:50am 3ft 9s 7s 4 7 mph 1020mb 85f 82f
9:50am 3ft 9s 7s 4 7 mph 1019.6mb 85f 83f
8:50am 2.5ft 9s 7s 4 7 mph 1019.4mb 85f 83f
7:50am 3ft 9s 7s 2 7 mph 1019.5mb 84f 82f
6:50am 3ft 9s 7s 4
mph
1019.2mb 84f 82f
5:50am 2.5ft 8s 7s 7 9 mph 1019.2mb 84f 81f
4:50am 3ft 8s 7s 4 7 mph 1019mb 84f 82f
3:50am 2.5ft 9s 7s 7 9 mph 1019.1mb 84f 82f
2:50am 3ft 8s 7s 9
mph
1019.4mb 84f 82f
1:50am 2.5ft 9s 7s 7 9 mph 1019.9mb 85f 82f
12:50am 2.5ft 9s 7s 7 9 mph 1020.3mb 85f 82f
Thu 07/21 11:50pm 2.5ft 9s 7s 4 7 mph 1020.8mb 85f 82f
10:50pm 3ft 8s 7s 7 9 mph 1020.6mb 85f 82f
9:50pm 2.5ft 9s 7s 9 11 mph 1020.5mb 85f 82f
8:50pm 2.5ft 9s 7s 7
mph
1020mb 85f 81f
7:50pm 2.5ft 9s 7s 4 7 mph 1019.5mb 86f 82f
6:50pm 3.5ft 9s 7s 4 7 mph 1019.5mb 86f 82f
5:50pm 3.5ft 8s 5s 7 9 mph 1019.6mb 86f 82f
4:50pm 3ft 9s 6s 7 9 mph 1020.3mb 86f 82f
3:50pm 3ft 9s 7s 7 9 mph 1020.8mb 87f 83f
2:50pm 3.5ft 8s 7s 4 9 mph 1020.8mb 87f 83f
1:50pm 3.5ft 8s 7s 7
mph
1021mb 87f 82f
12:50pm 3.5ft 9s 7s 7 9 mph 1021.3mb 86f 82f
11:50am 3.5ft 8s 7s 7 13 mph 1021.5mb 87f 83f
10:50am 3ft 8s 7s  -  2 mph 1021.4mb 86f 85f
9:50am 3ft 9s 7s 2 4 mph 1021.3mb 86f 83f
8:50am 3ft 9s 7s  -  2 mph 1021mb 85f 84f
7:50am 3ft 9s 6s 2 4 mph 1020.6mb 85f 83f
6:50am 3ft 9s 6s 2 4 mph 1020.2mb 85f 82f
5:50am 2.5ft 9s 6s 4 7 mph 1020mb 85f 81f
4:50am 2.5ft 10s 6s 2 4 mph 1020.1mb 85f 81f
3:50am 2.5ft 8s 6s 2 4 mph 1019.8mb 85f 81f
2:50am 2.5ft 9s 6s 2 4 mph 1020.2mb 85f 81f
1:50am 3ft 8s 6s 2 4 mph 1020.5mb 85f 81f
12:50am 2.5ft 9s 5s 4 7 mph 1020.8mb 85f 82f
Wed 07/20 11:50pm 2.5ft 8s 5s 4 7 mph 1020.9mb 85f 82f
10:50pm 2.5ft 8s 5s 4 7 mph 1020.5mb 85f 82f
9:50pm 2.5ft 8s 5s 9 11 mph 1020.3mb 85f 82f
8:50pm 2.5ft 9s 5s 2 4 mph 1019.8mb 86f 82f
7:50pm 2.5ft 7s 5s 2 4 mph 1019.4mb 86f 82f
6:50pm 2.5ft 8s 5s 4
mph
1019.1mb 86f 82f
5:50pm 2.5ft 8s 5s 7
mph
1019.8mb 86f 82f
4:50pm 2.5ft 7s 5s 9 11 mph 1019.9mb 86f 82f
3:50pm 2.5ft 8s 5s 11 13 mph 1020mb 86f 81f
2:50pm 2.5ft 9s 5s 9 11 mph 1020.4mb 86f 81f
1:50pm 2.5ft 8s 5s 7 9 mph 1020.7mb 87f 82f
12:50pm 2.5ft 8s 5s 7
mph
1021.2mb 86f 82f
11:50am 2.5ft 8s 5s 7 9 mph 1021.2mb 86f 82f
10:50am 2.5ft 8s 4s 7 9 mph 1021.1mb 86f 82f
9:50am 2ft 8s 4s 7 9 mph 1020.6mb 85f 82f
8:50am 2.5ft 4s 4s 4 7 mph 1021.1mb 85f 83f
7:50am 3ft 4s 4s 4 7 mph 1020.9mb 85f 81f
6:50am 2.5ft 9s 4s 18 22 mph 1020.4mb 85f 80f
5:50am 2ft 8s 4s 2
mph
1020.3mb 85f 82f
4:50am 2ft 8s 5s 4
mph
1019.8mb 85f 82f
3:50am 2ft 8s 4s 4
mph
1020.1mb 85f 82f